Terminal Aerodrome Forecast
Issued by NWS

Home | Current Version | Previous Version | Graphics & Text | Print | Product List | Glossary On
Versions: 1 2 3 4 5 6 7 8 9 10 11 12 13 14 15 16 17 18 19 20 21 22 23 24 25
000
FTUS43 KLOT 231100
TAFORD
TAF
KORD 231124Z 2312/2418 19011G16KT 6SM BR OVC012
     FM231600 21012G18KT P6SM SCT020 BKN150
     FM240000 20007KT P6SM SCT020 OVC150
     FM240900 36008KT 6SM BR VCSH OVC050
     FM241200 36010KT 4SM -RASN BR OVC035 PROB30 2416/2418 1SM -SNRA
      OVC008=

USA.gov is the U.S. government's official web portal to all federal, state and local government web resources and services.